sensor_id;sensor_type;location;lat;lon;timestamp;P1;durP1;ratioP1;P2;durP2;ratioP2
85829;SDS011;76277;49.212;16.680;2024-03-08T00:01:51;44.70;;;39.70;;
85829;SDS011;76277;49.212;16.680;2024-03-08T00:04:35;44.70;;;39.70;;
85829;SDS011;76277;49.212;16.680;2024-03-08T00:07:20;40.10;;;35.60;;
85829;SDS011;76277;49.212;16.680;2024-03-08T00:10:05;40.10;;;35.60;;
85829;SDS011;76277;49.212;16.680;2024-03-08T00:12:49;40.10;;;35.60;;
85829;SDS011;76277;49.212;16.680;2024-03-08T00:15:34;40.10;;;35.60;;
85829;SDS011;76277;49.212;16.680;2024-03-08T00:18:18;40.10;;;35.60;;
85829;SDS011;76277;49.212;16.680;2024-03-08T00:21:03;41.90;;;37.30;;
85829;SDS011;76277;49.212;16.680;2024-03-08T00:23:48;41.90;;;37.30;;
85829;SDS011;76277;49.212;16.680;2024-03-08T00:26:32;41.90;;;37.30;;
85829;SDS011;76277;49.212;16.680;2024-03-08T00:29:18;41.90;;;37.30;;
85829;SDS011;76277;49.212;16.680;2024-03-08T00:32:02;41.90;;;37.30;;
85829;SDS011;76277;49.212;16.680;2024-03-08T00:37:31;41.40;;;36.80;;
85829;SDS011;76277;49.212;16.680;2024-03-08T00:40:16;41.40;;;36.80;;
85829;SDS011;76277;49.212;16.680;2024-03-08T00:43:00;41.40;;;36.80;;
85829;SDS011;76277;49.212;16.680;2024-03-08T00:45:45;41.40;;;36.80;;
85829;SDS011;76277;49.212;16.680;2024-03-08T00:48:29;41.40;;;36.80;;
85829;SDS011;76277;49.212;16.680;2024-03-08T00:51:14;40.80;;;36.30;;
85829;SDS011;76277;49.212;16.680;2024-03-08T00:53:59;40.80;;;36.30;;
85829;SDS011;76277;49.212;16.680;2024-03-08T00:56:44;40.80;;;36.30;;
85829;SDS011;76277;49.212;16.680;2024-03-08T00:59:28;40.80;;;36.30;;
85829;SDS011;76277;49.212;16.680;2024-03-08T01:02:14;40.80;;;36.30;;
85829;SDS011;76277;49.212;16.680;2024-03-08T01:04:58;40.80;;;36.30;;
85829;SDS011;76277;49.212;16.680;2024-03-08T01:07:42;41.10;;;36.50;;
85829;SDS011;76277;49.212;16.680;2024-03-08T01:10:27;41.10;;;36.50;;
85829;SDS011;76277;49.212;16.680;2024-03-08T01:13:12;41.10;;;36.50;;
85829;SDS011;76277;49.212;16.680;2024-03-08T01:15:56;41.10;;;36.50;;
85829;SDS011;76277;49.212;16.680;2024-03-08T01:18:41;41.10;;;36.50;;
85829;SDS011;76277;49.212;16.680;2024-03-08T01:21:26;42.50;;;37.70;;
85829;SDS011;76277;49.212;16.680;2024-03-08T01:24:10;42.50;;;37.70;;
85829;SDS011;76277;49.212;16.680;2024-03-08T01:26:55;42.50;;;37.70;;
85829;SDS011;76277;49.212;16.680;2024-03-08T01:29:40;42.50;;;37.70;;
85829;SDS011;76277;49.212;16.680;2024-03-08T01:32:25;42.50;;;37.70;;
85829;SDS011;76277;49.212;16.680;2024-03-08T01:35:09;42.50;;;37.70;;
85829;SDS011;76277;49.212;16.680;2024-03-08T01:37:53;48.60;;;43.20;;
85829;SDS011;76277;49.212;16.680;2024-03-08T01:40:39;48.60;;;43.20;;
85829;SDS011;76277;49.212;16.680;2024-03-08T01:43:27;48.60;;;43.20;;
85829;SDS011;76277;49.212;16.680;2024-03-08T01:46:09;48.60;;;43.20;;
85829;SDS011;76277;49.212;16.680;2024-03-08T01:48:52;48.60;;;43.20;;
85829;SDS011;76277;49.212;16.680;2024-03-08T01:51:38;36.90;;;32.80;;
85829;SDS011;76277;49.212;16.680;2024-03-08T01:54:22;36.90;;;32.80;;
85829;SDS011;76277;49.212;16.680;2024-03-08T01:57:06;36.90;;;32.80;;
85829;SDS011;76277;49.212;16.680;2024-03-08T01:59:51;36.90;;;32.80;;
85829;SDS011;76277;49.212;16.680;2024-03-08T02:02:37;36.90;;;32.80;;
85829;SDS011;76277;49.212;16.680;2024-03-08T02:05:21;36.90;;;32.80;;
85829;SDS011;76277;49.212;16.680;2024-03-08T02:08:06;41.60;;;37.00;;
85829;SDS011;76277;49.212;16.680;2024-03-08T02:10:50;41.60;;;37.00;;
85829;SDS011;76277;49.212;16.680;2024-03-08T02:13:34;41.60;;;37.00;;
85829;SDS011;76277;49.212;16.680;2024-03-08T02:16:21;41.60;;;37.00;;
85829;SDS011;76277;49.212;16.680;2024-03-08T02:19:04;41.60;;;37.00;;
85829;SDS011;76277;49.212;16.680;2024-03-08T02:21:48;41.70;;;37.10;;
85829;SDS011;76277;49.212;16.680;2024-03-08T02:24:33;41.70;;;37.10;;
85829;SDS011;76277;49.212;16.680;2024-03-08T02:27:23;41.70;;;37.10;;
85829;SDS011;76277;49.212;16.680;2024-03-08T02:30:03;41.70;;;37.10;;
85829;SDS011;76277;49.212;16.680;2024-03-08T02:32:47;41.70;;;37.10;;
85829;SDS011;76277;49.212;16.680;2024-03-08T02:35:31;41.70;;;37.10;;
85829;SDS011;76277;49.212;16.680;2024-03-08T02:38:18;41.30;;;34.20;;
85829;SDS011;76277;49.212;16.680;2024-03-08T02:41:01;41.30;;;34.20;;
85829;SDS011;76277;49.212;16.680;2024-03-08T02:43:46;41.30;;;34.20;;
85829;SDS011;76277;49.212;16.680;2024-03-08T02:46:31;41.30;;;34.20;;
85829;SDS011;76277;49.212;16.680;2024-03-08T02:49:15;41.30;;;34.20;;
85829;SDS011;76277;49.212;16.680;2024-03-08T02:51:59;40.40;;;33.20;;
85829;SDS011;76277;49.212;16.680;2024-03-08T02:54:44;40.40;;;33.20;;
85829;SDS011;76277;49.212;16.680;2024-03-08T02:57:29;40.40;;;33.20;;
85829;SDS011;76277;49.212;16.680;2024-03-08T03:00:14;40.40;;;33.20;;
85829;SDS011;76277;49.212;16.680;2024-03-08T03:02:58;40.40;;;33.20;;
85829;SDS011;76277;49.212;16.680;2024-03-08T03:05:43;40.40;;;33.20;;
85829;SDS011;76277;49.212;16.680;2024-03-08T03:08:27;40.40;;;35.90;;
85829;SDS011;76277;49.212;16.680;2024-03-08T03:11:12;40.40;;;35.90;;
85829;SDS011;76277;49.212;16.680;2024-03-08T03:13:57;40.40;;;35.90;;
85829;SDS011;76277;49.212;16.680;2024-03-08T03:16:42;40.40;;;35.90;;
85829;SDS011;76277;49.212;16.680;2024-03-08T03:19:26;40.40;;;35.90;;
85829;SDS011;76277;49.212;16.680;2024-03-08T03:22:11;39.80;;;35.40;;
85829;SDS011;76277;49.212;16.680;2024-03-08T03:24:55;39.80;;;35.40;;
85829;SDS011;76277;49.212;16.680;2024-03-08T03:27:40;39.80;;;35.40;;
85829;SDS011;76277;49.212;16.680;2024-03-08T03:30:25;39.80;;;35.40;;
85829;SDS011;76277;49.212;16.680;2024-03-08T03:33:10;39.80;;;35.40;;
85829;SDS011;76277;49.212;16.680;2024-03-08T03:35:54;39.80;;;35.40;;
85829;SDS011;76277;49.212;16.680;2024-03-08T03:38:39;37.50;;;33.40;;
85829;SDS011;76277;49.212;16.680;2024-03-08T03:41:24;37.50;;;33.40;;
85829;SDS011;76277;49.212;16.680;2024-03-08T03:44:08;37.50;;;33.40;;
85829;SDS011;76277;49.212;16.680;2024-03-08T03:46:53;37.50;;;33.40;;
85829;SDS011;76277;49.212;16.680;2024-03-08T03:49:38;37.50;;;33.40;;
85829;SDS011;76277;49.212;16.680;2024-03-08T03:52:22;40.30;;;35.80;;
85829;SDS011;76277;49.212;16.680;2024-03-08T03:55:08;40.30;;;35.80;;
85829;SDS011;76277;49.212;16.680;2024-03-08T03:57:51;40.30;;;35.80;;
85829;SDS011;76277;49.212;16.680;2024-03-08T04:00:36;40.30;;;35.80;;
85829;SDS011;76277;49.212;16.680;2024-03-08T04:03:21;40.30;;;35.80;;
85829;SDS011;76277;49.212;16.680;2024-03-08T04:06:06;40.30;;;35.80;;
85829;SDS011;76277;49.212;16.680;2024-03-08T04:08:50;45.50;;;38.30;;
85829;SDS011;76277;49.212;16.680;2024-03-08T04:11:35;45.50;;;38.30;;
85829;SDS011;76277;49.212;16.680;2024-03-08T04:14:19;45.50;;;38.30;;
85829;SDS011;76277;49.212;16.680;2024-03-08T04:17:04;45.50;;;38.30;;
85829;SDS011;76277;49.212;16.680;2024-03-08T04:19:49;45.50;;;38.30;;
85829;SDS011;76277;49.212;16.680;2024-03-08T04:22:34;45.80;;;38.70;;
85829;SDS011;76277;49.212;16.680;2024-03-08T04:25:18;45.80;;;38.70;;
85829;SDS011;76277;49.212;16.680;2024-03-08T04:28:03;45.80;;;38.70;;
85829;SDS011;76277;49.212;16.680;2024-03-08T04:30:48;45.80;;;38.70;;
85829;SDS011;76277;49.212;16.680;2024-03-08T04:33:32;45.80;;;38.70;;
85829;SDS011;76277;49.212;16.680;2024-03-08T04:36:17;45.80;;;38.70;;
85829;SDS011;76277;49.212;16.680;2024-03-08T04:39:01;38.20;;;33.90;;
85829;SDS011;76277;49.212;16.680;2024-03-08T04:41:46;38.20;;;33.90;;
85829;SDS011;76277;49.212;16.680;2024-03-08T04:44:31;38.20;;;33.90;;
85829;SDS011;76277;49.212;16.680;2024-03-08T04:47:15;38.20;;;33.90;;
85829;SDS011;76277;49.212;16.680;2024-03-08T04:50:00;38.20;;;33.90;;
85829;SDS011;76277;49.212;16.680;2024-03-08T04:52:45;41.40;;;36.80;;
85829;SDS011;76277;49.212;16.680;2024-03-08T04:55:29;41.40;;;36.80;;
85829;SDS011;76277;49.212;16.680;2024-03-08T04:58:14;41.40;;;36.80;;
85829;SDS011;76277;49.212;16.680;2024-03-08T05:00:59;41.40;;;36.80;;
85829;SDS011;76277;49.212;16.680;2024-03-08T05:03:43;41.40;;;36.80;;
85829;SDS011;76277;49.212;16.680;2024-03-08T05:06:28;41.40;;;36.80;;
85829;SDS011;76277;49.212;16.680;2024-03-08T05:09:13;37.40;;;33.20;;
85829;SDS011;76277;49.212;16.680;2024-03-08T05:11:57;37.40;;;33.20;;
85829;SDS011;76277;49.212;16.680;2024-03-08T05:14:42;37.40;;;33.20;;
85829;SDS011;76277;49.212;16.680;2024-03-08T05:17:27;37.40;;;33.20;;
85829;SDS011;76277;49.212;16.680;2024-03-08T05:20:11;37.40;;;33.20;;
85829;SDS011;76277;49.212;16.680;2024-03-08T05:22:56;35.00;;;31.10;;
85829;SDS011;76277;49.212;16.680;2024-03-08T05:25:41;35.00;;;31.10;;
85829;SDS011;76277;49.212;16.680;2024-03-08T05:28:25;35.00;;;31.10;;
85829;SDS011;76277;49.212;16.680;2024-03-08T05:31:10;35.00;;;31.10;;
85829;SDS011;76277;49.212;16.680;2024-03-08T05:33:55;35.00;;;31.10;;
85829;SDS011;76277;49.212;16.680;2024-03-08T05:36:39;35.00;;;31.10;;
85829;SDS011;76277;49.212;16.680;2024-03-08T05:39:24;41.20;;;36.60;;
85829;SDS011;76277;49.212;16.680;2024-03-08T05:42:09;41.20;;;36.60;;
85829;SDS011;76277;49.212;16.680;2024-03-08T05:44:53;41.20;;;36.60;;
85829;SDS011;76277;49.212;16.680;2024-03-08T05:47:39;41.20;;;36.60;;
85829;SDS011;76277;49.212;16.680;2024-03-08T05:50:23;41.20;;;36.60;;
85829;SDS011;76277;49.212;16.680;2024-03-08T05:53:07;38.20;;;34.00;;
85829;SDS011;76277;49.212;16.680;2024-03-08T05:55:52;38.20;;;34.00;;
85829;SDS011;76277;49.212;16.680;2024-03-08T05:58:37;38.20;;;34.00;;
85829;SDS011;76277;49.212;16.680;2024-03-08T06:01:21;38.20;;;34.00;;
85829;SDS011;76277;49.212;16.680;2024-03-08T06:04:06;38.20;;;34.00;;
85829;SDS011;76277;49.212;16.680;2024-03-08T06:06:51;38.20;;;34.00;;
85829;SDS011;76277;49.212;16.680;2024-03-08T06:09:35;41.70;;;37.10;;
85829;SDS011;76277;49.212;16.680;2024-03-08T06:12:20;41.70;;;37.10;;
85829;SDS011;76277;49.212;16.680;2024-03-08T06:15:05;41.70;;;37.10;;
85829;SDS011;76277;49.212;16.680;2024-03-08T06:17:49;41.70;;;37.10;;
85829;SDS011;76277;49.212;16.680;2024-03-08T06:20:34;41.70;;;37.10;;
85829;SDS011;76277;49.212;16.680;2024-03-08T06:23:19;36.50;;;32.50;;
85829;SDS011;76277;49.212;16.680;2024-03-08T06:26:03;36.50;;;32.50;;
85829;SDS011;76277;49.212;16.680;2024-03-08T06:28:48;36.50;;;32.50;;
85829;SDS011;76277;49.212;16.680;2024-03-08T06:31:33;36.50;;;32.50;;
85829;SDS011;76277;49.212;16.680;2024-03-08T06:34:17;36.50;;;32.50;;
85829;SDS011;76277;49.212;16.680;2024-03-08T06:37:02;34.60;;;30.80;;
85829;SDS011;76277;49.212;16.680;2024-03-08T06:39:47;34.60;;;30.80;;
85829;SDS011;76277;49.212;16.680;2024-03-08T06:42:31;34.60;;;30.80;;
85829;SDS011;76277;49.212;16.680;2024-03-08T06:45:16;34.60;;;30.80;;
85829;SDS011;76277;49.212;16.680;2024-03-08T06:48:01;34.60;;;30.80;;
85829;SDS011;76277;49.212;16.680;2024-03-08T06:50:46;34.60;;;30.80;;
85829;SDS011;76277;49.212;16.680;2024-03-08T06:53:30;40.90;;;36.30;;
85829;SDS011;76277;49.212;16.680;2024-03-08T06:56:15;40.90;;;36.30;;
85829;SDS011;76277;49.212;16.680;2024-03-08T06:58:59;40.90;;;36.30;;
85829;SDS011;76277;49.212;16.680;2024-03-08T07:01:44;40.90;;;36.30;;
85829;SDS011;76277;49.212;16.680;2024-03-08T07:04:29;40.90;;;36.30;;
85829;SDS011;76277;49.212;16.680;2024-03-08T07:07:14;43.40;;;38.60;;
85829;SDS011;76277;49.212;16.680;2024-03-08T07:09:58;43.40;;;38.60;;
85829;SDS011;76277;49.212;16.680;2024-03-08T07:12:43;43.40;;;38.60;;
85829;SDS011;76277;49.212;16.680;2024-03-08T07:15:27;43.40;;;38.60;;
85829;SDS011;76277;49.212;16.680;2024-03-08T07:18:12;43.40;;;38.60;;
85829;SDS011;76277;49.212;16.680;2024-03-08T07:20:57;43.40;;;38.60;;
85829;SDS011;76277;49.212;16.680;2024-03-08T07:23:41;42.50;;;37.70;;
85829;SDS011;76277;49.212;16.680;2024-03-08T07:26:26;42.50;;;37.70;;
85829;SDS011;76277;49.212;16.680;2024-03-08T07:29:10;42.50;;;37.70;;
85829;SDS011;76277;49.212;16.680;2024-03-08T07:31:55;42.50;;;37.70;;
85829;SDS011;76277;49.212;16.680;2024-03-08T07:34:40;42.50;;;37.70;;
85829;SDS011;76277;49.212;16.680;2024-03-08T07:37:25;39.40;;;35.00;;
85829;SDS011;76277;49.212;16.680;2024-03-08T07:40:10;39.40;;;35.00;;
85829;SDS011;76277;49.212;16.680;2024-03-08T07:42:54;39.40;;;35.00;;
85829;SDS011;76277;49.212;16.680;2024-03-08T07:45:39;39.40;;;35.00;;
85829;SDS011;76277;49.212;16.680;2024-03-08T07:48:23;39.40;;;35.00;;
85829;SDS011;76277;49.212;16.680;2024-03-08T07:51:08;39.40;;;35.00;;
85829;SDS011;76277;49.212;16.680;2024-03-08T07:53:53;38.20;;;34.00;;
85829;SDS011;76277;49.212;16.680;2024-03-08T07:56:37;38.20;;;34.00;;
85829;SDS011;76277;49.212;16.680;2024-03-08T07:59:22;38.20;;;34.00;;
85829;SDS011;76277;49.212;16.680;2024-03-08T08:02:07;38.20;;;34.00;;
85829;SDS011;76277;49.212;16.680;2024-03-08T08:04:51;38.20;;;34.00;;
85829;SDS011;76277;49.212;16.680;2024-03-08T08:07:36;36.50;;;32.40;;
85829;SDS011;76277;49.212;16.680;2024-03-08T08:10:21;36.50;;;32.40;;
85829;SDS011;76277;49.212;16.680;2024-03-08T08:13:05;36.50;;;32.40;;
85829;SDS011;76277;49.212;16.680;2024-03-08T08:15:50;36.50;;;32.40;;
85829;SDS011;76277;49.212;16.680;2024-03-08T08:18:35;36.50;;;32.40;;
85829;SDS011;76277;49.212;16.680;2024-03-08T08:21:19;36.50;;;32.40;;
85829;SDS011;76277;49.212;16.680;2024-03-08T08:24:05;33.30;;;29.60;;
85829;SDS011;76277;49.212;16.680;2024-03-08T08:26:49;33.30;;;29.60;;
85829;SDS011;76277;49.212;16.680;2024-03-08T08:29:33;33.30;;;29.60;;
85829;SDS011;76277;49.212;16.680;2024-03-08T08:32:18;33.30;;;29.60;;
85829;SDS011;76277;49.212;16.680;2024-03-08T08:35:03;33.30;;;29.60;;
85829;SDS011;76277;49.212;16.680;2024-03-08T08:37:47;44.40;;;37.20;;
85829;SDS011;76277;49.212;16.680;2024-03-08T08:40:32;44.40;;;37.20;;
85829;SDS011;76277;49.212;16.680;2024-03-08T08:43:16;44.40;;;37.20;;
85829;SDS011;76277;49.212;16.680;2024-03-08T08:46:01;44.40;;;37.20;;
85829;SDS011;76277;49.212;16.680;2024-03-08T08:48:46;44.40;;;37.20;;
85829;SDS011;76277;49.212;16.680;2024-03-08T08:51:30;44.40;;;37.20;;
85829;SDS011;76277;49.212;16.680;2024-03-08T08:54:15;39.60;;;35.20;;
85829;SDS011;76277;49.212;16.680;2024-03-08T08:57:00;39.60;;;35.20;;
85829;SDS011;76277;49.212;16.680;2024-03-08T09:02:29;39.60;;;35.20;;
85829;SDS011;76277;49.212;16.680;2024-03-08T09:05:14;39.60;;;35.20;;
85829;SDS011;76277;49.212;16.680;2024-03-08T09:07:59;33.70;;;30.00;;
85829;SDS011;76277;49.212;16.680;2024-03-08T09:10:43;33.70;;;30.00;;
85829;SDS011;76277;49.212;16.680;2024-03-08T09:13:28;33.70;;;30.00;;
85829;SDS011;76277;49.212;16.680;2024-03-08T09:16:12;33.70;;;30.00;;
85829;SDS011;76277;49.212;16.680;2024-03-08T09:18:57;33.70;;;30.00;;
85829;SDS011;76277;49.212;16.680;2024-03-08T09:21:42;33.70;;;30.00;;
85829;SDS011;76277;49.212;16.680;2024-03-08T09:24:26;36.70;;;32.60;;
85829;SDS011;76277;49.212;16.680;2024-03-08T09:27:11;36.70;;;32.60;;
85829;SDS011;76277;49.212;16.680;2024-03-08T09:29:56;36.70;;;32.60;;
85829;SDS011;76277;49.212;16.680;2024-03-08T09:32:41;36.70;;;32.60;;
85829;SDS011;76277;49.212;16.680;2024-03-08T09:35:25;36.70;;;32.60;;
85829;SDS011;76277;49.212;16.680;2024-03-08T09:38:10;41.40;;;36.80;;
85829;SDS011;76277;49.212;16.680;2024-03-08T09:40:54;41.40;;;36.80;;
85829;SDS011;76277;49.212;16.680;2024-03-08T09:43:39;41.40;;;36.80;;
85829;SDS011;76277;49.212;16.680;2024-03-08T09:46:24;41.40;;;36.80;;
85829;SDS011;76277;49.212;16.680;2024-03-08T09:49:09;41.40;;;36.80;;
85829;SDS011;76277;49.212;16.680;2024-03-08T09:51:53;41.40;;;36.80;;
85829;SDS011;76277;49.212;16.680;2024-03-08T09:54:38;39.30;;;34.90;;
85829;SDS011;76277;49.212;16.680;2024-03-08T09:57:23;39.30;;;34.90;;
85829;SDS011;76277;49.212;16.680;2024-03-08T10:00:07;39.30;;;34.90;;
85829;SDS011;76277;49.212;16.680;2024-03-08T10:02:52;39.30;;;34.90;;
85829;SDS011;76277;49.212;16.680;2024-03-08T10:05:37;39.30;;;34.90;;
85829;SDS011;76277;49.212;16.680;2024-03-08T10:08:21;42.60;;;37.90;;
85829;SDS011;76277;49.212;16.680;2024-03-08T10:11:07;42.60;;;37.90;;
85829;SDS011;76277;49.212;16.680;2024-03-08T10:13:51;42.60;;;37.90;;
85829;SDS011;76277;49.212;16.680;2024-03-08T10:16:35;42.60;;;37.90;;
85829;SDS011;76277;49.212;16.680;2024-03-08T10:19:20;42.60;;;37.90;;
85829;SDS011;76277;49.212;16.680;2024-03-08T10:22:05;42.60;;;37.90;;
85829;SDS011;76277;49.212;16.680;2024-03-08T10:24:49;39.60;;;35.20;;
85829;SDS011;76277;49.212;16.680;2024-03-08T10:27:34;39.60;;;35.20;;
85829;SDS011;76277;49.212;16.680;2024-03-08T10:30:18;39.60;;;35.20;;
85829;SDS011;76277;49.212;16.680;2024-03-08T10:33:03;39.60;;;35.20;;
85829;SDS011;76277;49.212;16.680;2024-03-08T10:35:48;39.60;;;35.20;;
85829;SDS011;76277;49.212;16.680;2024-03-08T10:38:33;39.40;;;35.00;;
85829;SDS011;76277;49.212;16.680;2024-03-08T10:41:17;39.40;;;35.00;;
85829;SDS011;76277;49.212;16.680;2024-03-08T10:44:10;39.40;;;35.00;;
85829;SDS011;76277;49.212;16.680;2024-03-08T10:46:56;39.40;;;35.00;;
85829;SDS011;76277;49.212;16.680;2024-03-08T10:49:32;39.40;;;35.00;;
85829;SDS011;76277;49.212;16.680;2024-03-08T10:52:16;39.40;;;35.00;;
85829;SDS011;76277;49.212;16.680;2024-03-08T10:55:01;40.90;;;36.40;;
85829;SDS011;76277;49.212;16.680;2024-03-08T10:57:45;40.90;;;36.40;;
85829;SDS011;76277;49.212;16.680;2024-03-08T11:00:30;40.90;;;36.40;;
85829;SDS011;76277;49.212;16.680;2024-03-08T11:05:59;40.90;;;36.40;;
85829;SDS011;76277;49.212;16.680;2024-03-08T11:08:44;38.60;;;34.30;;
85829;SDS011;76277;49.212;16.680;2024-03-08T11:11:30;38.60;;;34.30;;
85829;SDS011;76277;49.212;16.680;2024-03-08T11:16:58;38.60;;;34.30;;
85829;SDS011;76277;49.212;16.680;2024-03-08T11:19:46;38.60;;;34.30;;
85829;SDS011;76277;49.212;16.680;2024-03-08T11:22:28;38.60;;;34.30;;
85829;SDS011;76277;49.212;16.680;2024-03-08T11:28:09;39.80;;;35.30;;
85829;SDS011;76277;49.212;16.680;2024-03-08T11:30:41;39.80;;;35.30;;
85829;SDS011;76277;49.212;16.680;2024-03-08T11:33:27;39.80;;;35.30;;
85829;SDS011;76277;49.212;16.680;2024-03-08T11:36:11;39.80;;;35.30;;
85829;SDS011;76277;49.212;16.680;2024-03-08T11:38:57;39.30;;;35.00;;
85829;SDS011;76277;49.212;16.680;2024-03-08T11:41:40;39.30;;;35.00;;
85829;SDS011;76277;49.212;16.680;2024-03-08T11:44:27;39.30;;;35.00;;
85829;SDS011;76277;49.212;16.680;2024-03-08T11:47:09;39.30;;;35.00;;
85829;SDS011;76277;49.212;16.680;2024-03-08T11:49:54;39.30;;;35.00;;
85829;SDS011;76277;49.212;16.680;2024-03-08T11:52:38;39.30;;;35.00;;
85829;SDS011;76277;49.212;16.680;2024-03-08T11:55:23;47.20;;;41.90;;
85829;SDS011;76277;49.212;16.680;2024-03-08T11:58:08;47.20;;;41.90;;
85829;SDS011;76277;49.212;16.680;2024-03-08T12:01:02;47.20;;;41.90;;
85829;SDS011;76277;49.212;16.680;2024-03-08T12:03:37;47.20;;;41.90;;
85829;SDS011;76277;49.212;16.680;2024-03-08T12:06:22;47.20;;;41.90;;
85829;SDS011;76277;49.212;16.680;2024-03-08T12:09:08;37.90;;;33.70;;
85829;SDS011;76277;49.212;16.680;2024-03-08T12:11:51;37.90;;;33.70;;
85829;SDS011;76277;49.212;16.680;2024-03-08T12:14:36;37.90;;;33.70;;
85829;SDS011;76277;49.212;16.680;2024-03-08T12:17:21;37.90;;;33.70;;
85829;SDS011;76277;49.212;16.680;2024-03-08T12:20:15;37.90;;;33.70;;
85829;SDS011;76277;49.212;16.680;2024-03-08T12:22:50;37.90;;;33.70;;
85829;SDS011;76277;49.212;16.680;2024-03-08T12:25:34;36.70;;;32.60;;
85829;SDS011;76277;49.212;16.680;2024-03-08T12:28:19;36.70;;;32.60;;
85829;SDS011;76277;49.212;16.680;2024-03-08T12:31:07;36.70;;;32.60;;
85829;SDS011;76277;49.212;16.680;2024-03-08T12:33:49;36.70;;;32.60;;
85829;SDS011;76277;49.212;16.680;2024-03-08T12:36:33;36.70;;;32.60;;
85829;SDS011;76277;49.212;16.680;2024-03-08T12:39:18;32.90;;;29.20;;
85829;SDS011;76277;49.212;16.680;2024-03-08T12:42:02;32.90;;;29.20;;
85829;SDS011;76277;49.212;16.680;2024-03-08T12:44:47;32.90;;;29.20;;
85829;SDS011;76277;49.212;16.680;2024-03-08T12:47:32;32.90;;;29.20;;
85829;SDS011;76277;49.212;16.680;2024-03-08T12:50:17;32.90;;;29.20;;
85829;SDS011;76277;49.212;16.680;2024-03-08T12:53:01;32.90;;;29.20;;
85829;SDS011;76277;49.212;16.680;2024-03-08T12:55:45;36.80;;;32.70;;
85829;SDS011;76277;49.212;16.680;2024-03-08T12:58:30;36.80;;;32.70;;
85829;SDS011;76277;49.212;16.680;2024-03-08T13:01:15;36.80;;;32.70;;
85829;SDS011;76277;49.212;16.680;2024-03-08T13:04:00;36.80;;;32.70;;
85829;SDS011;76277;49.212;16.680;2024-03-08T13:06:44;36.80;;;32.70;;
85829;SDS011;76277;49.212;16.680;2024-03-08T13:09:29;39.20;;;34.90;;
85829;SDS011;76277;49.212;16.680;2024-03-08T13:12:14;39.20;;;34.90;;
85829;SDS011;76277;49.212;16.680;2024-03-08T13:14:58;39.20;;;34.90;;
85829;SDS011;76277;49.212;16.680;2024-03-08T13:17:43;39.20;;;34.90;;
85829;SDS011;76277;49.212;16.680;2024-03-08T13:20:27;39.20;;;34.90;;
85829;SDS011;76277;49.212;16.680;2024-03-08T13:23:12;39.20;;;34.90;;
85829;SDS011;76277;49.212;16.680;2024-03-08T13:25:57;37.50;;;33.30;;
85829;SDS011;76277;49.212;16.680;2024-03-08T13:28:41;37.50;;;33.30;;
85829;SDS011;76277;49.212;16.680;2024-03-08T13:31:26;37.50;;;33.30;;
85829;SDS011;76277;49.212;16.680;2024-03-08T13:34:11;37.50;;;33.30;;
85829;SDS011;76277;49.212;16.680;2024-03-08T13:36:56;37.50;;;33.30;;
85829;SDS011;76277;49.212;16.680;2024-03-08T13:39:40;41.40;;;36.80;;
85829;SDS011;76277;49.212;16.680;2024-03-08T13:42:25;41.40;;;36.80;;
85829;SDS011;76277;49.212;16.680;2024-03-08T13:47:54;41.40;;;36.80;;
85829;SDS011;76277;49.212;16.680;2024-03-08T13:50:39;41.40;;;36.80;;
85829;SDS011;76277;49.212;16.680;2024-03-08T13:53:24;41.40;;;36.80;;
85829;SDS011;76277;49.212;16.680;2024-03-08T13:56:09;41.30;;;36.70;;
85829;SDS011;76277;49.212;16.680;2024-03-08T13:58:54;41.30;;;36.70;;
85829;SDS011;76277;49.212;16.680;2024-03-08T14:01:37;41.30;;;36.70;;
85829;SDS011;76277;49.212;16.680;2024-03-08T14:04:22;41.30;;;36.70;;
85829;SDS011;76277;49.212;16.680;2024-03-08T14:07:07;41.30;;;36.70;;
85829;SDS011;76277;49.212;16.680;2024-03-08T14:09:52;44.70;;;39.70;;
85829;SDS011;76277;49.212;16.680;2024-03-08T14:12:36;44.70;;;39.70;;
85829;SDS011;76277;49.212;16.680;2024-03-08T14:15:21;44.70;;;39.70;;
85829;SDS011;76277;49.212;16.680;2024-03-08T14:20:50;44.70;;;39.70;;
85829;SDS011;76277;49.212;16.680;2024-03-08T14:23:35;44.70;;;39.70;;
85829;SDS011;76277;49.212;16.680;2024-03-08T14:26:19;46.10;;;41.00;;
85829;SDS011;76277;49.212;16.680;2024-03-08T14:29:04;46.10;;;41.00;;
85829;SDS011;76277;49.212;16.680;2024-03-08T14:31:49;46.10;;;41.00;;
85829;SDS011;76277;49.212;16.680;2024-03-08T14:34:34;46.10;;;41.00;;
85829;SDS011;76277;49.212;16.680;2024-03-08T14:37:19;46.10;;;41.00;;
85829;SDS011;76277;49.212;16.680;2024-03-08T14:40:03;42.70;;;38.00;;
85829;SDS011;76277;49.212;16.680;2024-03-08T14:42:47;42.70;;;38.00;;
85829;SDS011;76277;49.212;16.680;2024-03-08T14:45:32;42.70;;;38.00;;
85829;SDS011;76277;49.212;16.680;2024-03-08T14:48:17;42.70;;;38.00;;
85829;SDS011;76277;49.212;16.680;2024-03-08T14:51:02;42.70;;;38.00;;
85829;SDS011;76277;49.212;16.680;2024-03-08T14:53:46;42.70;;;38.00;;
85829;SDS011;76277;49.212;16.680;2024-03-08T14:56:31;43.60;;;38.80;;
85829;SDS011;76277;49.212;16.680;2024-03-08T14:59:16;43.60;;;38.80;;
85829;SDS011;76277;49.212;16.680;2024-03-08T15:02:00;43.60;;;38.80;;
85829;SDS011;76277;49.212;16.680;2024-03-08T15:04:47;43.60;;;38.80;;
85829;SDS011;76277;49.212;16.680;2024-03-08T15:07:29;43.60;;;38.80;;
85829;SDS011;76277;49.212;16.680;2024-03-08T15:10:14;48.70;;;43.20;;
85829;SDS011;76277;49.212;16.680;2024-03-08T15:12:59;48.70;;;43.20;;
85829;SDS011;76277;49.212;16.680;2024-03-08T15:15:44;48.70;;;43.20;;
85829;SDS011;76277;49.212;16.680;2024-03-08T15:18:28;48.70;;;43.20;;
85829;SDS011;76277;49.212;16.680;2024-03-08T15:21:14;48.70;;;43.20;;
85829;SDS011;76277;49.212;16.680;2024-03-08T15:23:58;44.30;;;39.40;;
85829;SDS011;76277;49.212;16.680;2024-03-08T15:26:42;44.30;;;39.40;;
85829;SDS011;76277;49.212;16.680;2024-03-08T15:29:27;44.30;;;39.40;;
85829;SDS011;76277;49.212;16.680;2024-03-08T15:32:11;44.30;;;39.40;;
85829;SDS011;76277;49.212;16.680;2024-03-08T15:34:56;44.30;;;39.40;;
85829;SDS011;76277;49.212;16.680;2024-03-08T15:37:41;44.30;;;39.40;;
85829;SDS011;76277;49.212;16.680;2024-03-08T15:40:25;45.40;;;40.30;;
85829;SDS011;76277;49.212;16.680;2024-03-08T15:43:10;45.40;;;40.30;;
85829;SDS011;76277;49.212;16.680;2024-03-08T15:45:55;45.40;;;40.30;;
85829;SDS011;76277;49.212;16.680;2024-03-08T15:48:39;45.40;;;40.30;;
85829;SDS011;76277;49.212;16.680;2024-03-08T15:51:24;45.40;;;40.30;;
85829;SDS011;76277;49.212;16.680;2024-03-08T15:54:09;47.40;;;42.10;;
85829;SDS011;76277;49.212;16.680;2024-03-08T15:56:53;47.40;;;42.10;;
85829;SDS011;76277;49.212;16.680;2024-03-08T15:59:38;47.40;;;42.10;;
85829;SDS011;76277;49.212;16.680;2024-03-08T16:02:23;47.40;;;42.10;;
85829;SDS011;76277;49.212;16.680;2024-03-08T16:05:08;47.40;;;42.10;;
85829;SDS011;76277;49.212;16.680;2024-03-08T16:07:52;47.40;;;42.10;;